createdAt,value
2023-01-21T00:02:26.374Z,0.88
2023-01-21T00:07:27.916Z,0.88
2023-01-21T00:12:29.353Z,0.88
2023-01-21T00:17:35.266Z,0.88
2023-01-21T00:22:36.816Z,-140.81
2023-01-21T00:32:39.591Z,-140.81
2023-01-21T00:37:41.681Z,-140.81
2023-01-21T00:42:43.738Z,-140.81
2023-01-21T00:47:45.944Z,-140.81
2023-01-21T01:07:51.586Z,0.88
2023-01-21T01:12:53.119Z,-140.81
2023-01-21T01:27:57.503Z,-140.81
2023-01-21T01:32:59.798Z,-140.81
2023-01-21T01:38:07.702Z,-140.81
2023-01-21T01:43:17.712Z,-140.81
2023-01-21T01:48:28.349Z,-140.81
2023-01-21T01:53:31.920Z,-140.81
2023-01-21T01:58:33.678Z,-140.81
2023-01-21T02:03:44.180Z,-140.81
2023-01-21T02:08:47.197Z,-140.81
2023-01-21T02:13:53.574Z,-140.81
2023-01-21T02:24:36.051Z,-140.81
2023-01-21T02:30:15.395Z,-140.81
2023-01-21T02:35:30.605Z,-140.81
2023-01-21T02:40:48.676Z,-140.81
2023-01-21T02:45:59.394Z,-140.81
2023-01-21T02:51:02.159Z,-140.81
2023-01-21T02:56:13.643Z,-140.81
2023-01-21T03:01:29.421Z,-140.81
2023-01-21T03:12:17.429Z,-140.81
2023-01-21T03:17:25.954Z,-140.81
2023-01-21T03:22:32.969Z,-140.81
2023-01-21T03:27:37.084Z,-140.81
2023-01-21T03:32:40.523Z,-140.81
2023-01-21T03:37:47.821Z,-140.81
2023-01-21T03:42:50.962Z,-140.81
2023-01-21T03:47:59.075Z,-140.81
2023-01-21T03:53:00.875Z,-140.81
2023-01-21T03:58:02.691Z,-140.81
2023-01-21T04:03:04.093Z,-140.81
2023-01-21T04:08:05.557Z,-140.81
2023-01-21T04:13:07.006Z,-140.81
2023-01-21T04:18:08.672Z,-140.81
2023-01-21T04:23:10.164Z,-140.81
2023-01-21T04:28:11.626Z,-140.81
2023-01-21T04:33:13.400Z,-140.81
2023-01-21T04:38:15.735Z,-140.81
2023-01-21T04:43:17.584Z,-140.81
2023-01-21T04:48:19.170Z,-140.81
2023-01-21T04:53:20.638Z,-140.81
2023-01-21T04:58:22.132Z,-140.81
2023-01-21T05:03:23.657Z,-140.81
2023-01-21T05:08:25.061Z,-140.81
2023-01-21T05:13:26.541Z,-140.81
2023-01-21T05:18:31.659Z,-140.81
2023-01-21T05:23:33.345Z,-140.81
2023-01-21T05:28:34.749Z,-140.81
2023-01-21T05:38:37.986Z,-140.81
2023-01-21T05:43:39.394Z,-140.81
2023-01-21T05:48:40.818Z,-140.81
2023-01-21T05:53:42.225Z,-140.81
2023-01-21T05:58:43.646Z,-140.81
2023-01-21T06:03:45.101Z,-140.81
2023-01-21T06:08:46.541Z,-140.81
2023-01-21T06:13:47.971Z,-140.81
2023-01-21T06:18:49.423Z,-140.81
2023-01-21T06:23:50.852Z,-140.81
2023-01-21T06:28:52.258Z,-140.81
2023-01-21T06:33:54.738Z,-140.81
2023-01-21T06:38:56.185Z,-140.81
2023-01-21T06:43:57.672Z,-140.81
2023-01-21T06:48:59.258Z,-140.81
2023-01-21T06:54:00.685Z,-140.81
2023-01-21T06:59:02.583Z,-140.81
2023-01-21T07:04:04.043Z,-140.81
2023-01-21T07:09:06.757Z,-140.81
2023-01-21T07:14:08.244Z,-140.81
2023-01-21T07:19:10.577Z,-140.81
2023-01-21T07:24:12.013Z,-140.81
2023-01-21T07:29:13.825Z,-140.81
2023-01-21T07:34:15.456Z,-140.81
2023-01-21T07:39:16.918Z,-140.81
2023-01-21T07:44:18.335Z,-140.81
2023-01-21T07:49:19.804Z,-140.81
2023-01-21T07:54:21.205Z,-140.81
2023-01-21T07:59:22.714Z,-140.81
2023-01-21T08:04:25.245Z,-140.81
2023-01-21T08:09:26.704Z,-140.81
2023-01-21T08:14:28.160Z,-140.81
2023-01-21T08:19:29.572Z,-140.81
2023-01-21T08:24:31.040Z,-140.81
2023-01-21T08:29:32.539Z,-140.81
2023-01-21T08:34:34.027Z,-140.81
2023-01-21T08:39:35.489Z,-140.81
2023-01-21T08:44:36.946Z,-140.81
2023-01-21T08:49:38.361Z,-140.81
2023-01-21T08:54:41.315Z,-140.81
2023-01-21T08:59:42.732Z,-140.81
2023-01-21T09:04:44.257Z,-140.81
2023-01-21T09:09:47.726Z,-140.81
2023-01-21T09:14:49.231Z,-140.81
2023-01-21T09:19:50.671Z,-140.81
2023-01-21T09:24:52.757Z,-140.81
2023-01-21T09:29:54.707Z,-140.81
2023-01-21T09:34:56.106Z,-140.81
2023-01-21T09:39:57.531Z,-140.81
2023-01-21T09:45:01.569Z,-140.81
2023-01-21T09:50:07.819Z,0.88
2023-01-21T09:55:16.868Z,-140.81
2023-01-21T10:05:51.440Z,-140.81
2023-01-21T10:16:27.636Z,-140.81
2023-01-21T10:21:38.753Z,0.88
2023-01-21T10:31:51.278Z,-140.81
2023-01-21T10:42:24.422Z,-140.81
2023-01-21T10:53:03.537Z,-140.81
2023-01-21T10:58:16.036Z,-140.81
2023-01-21T11:08:30.356Z,-140.81
2023-01-21T11:18:33.388Z,0.88
2023-01-21T11:23:39.620Z,0.88
2023-01-21T11:28:41.028Z,0.88
2023-01-21T11:33:43.342Z,0.88
2023-01-21T11:38:47.274Z,0.88
2023-01-21T11:43:52.697Z,-140.81
2023-01-21T11:49:06.329Z,-140.81
2023-01-21T11:54:15.891Z,-140.81
2023-01-21T11:59:25.865Z,-140.81
2023-01-21T12:04:27.400Z,-140.81
2023-01-21T12:09:29.245Z,1.74
2023-01-21T12:20:01.268Z,-140.81
2023-01-21T12:25:21.616Z,1.74
2023-01-21T12:30:38.314Z,1.74
2023-01-21T12:35:46.188Z,-140.81
2023-01-21T12:40:59.950Z,1.74
2023-01-21T12:46:10.387Z,1.74
2023-01-21T12:51:25.708Z,-140.81
2023-01-21T12:56:36.137Z,1.74
2023-01-21T13:01:59.570Z,1.74
2023-01-21T13:07:30.928Z,-140.81
2023-01-21T13:12:35.177Z,1.74
2023-01-21T13:17:42.139Z,2.62
2023-01-21T13:23:06.272Z,2.53
2023-01-21T13:28:26.273Z,2.53
2023-01-21T13:33:30.418Z,-140.81
2023-01-21T13:38:41.159Z,2.53
2023-01-21T13:43:56.432Z,2.53
2023-01-21T13:49:11.167Z,2.53
2023-01-21T13:54:39.352Z,2.56
2023-01-21T14:00:00.464Z,2.56
2023-01-21T14:05:11.257Z,2.54
2023-01-21T14:10:28.248Z,2.54
2023-01-21T14:15:47.539Z,-140.81
2023-01-21T14:26:22.639Z,2.54
2023-01-21T14:31:39.123Z,2.44
2023-01-21T14:36:57.784Z,2.56
2023-01-21T14:42:04.909Z,2.56
2023-01-21T14:47:33.480Z,-140.81
2023-01-21T14:52:46.230Z,2.47
2023-01-21T14:57:52.380Z,2.47
2023-01-21T15:03:09.223Z,2.56
2023-01-21T15:08:25.365Z,2.56
2023-01-21T15:13:32.675Z,2.56
2023-01-21T15:18:48.294Z,2.56
2023-01-21T15:23:50.250Z,2.20
2023-01-21T15:28:55.724Z,2.20
2023-01-21T15:34:01.523Z,2.23
2023-01-21T15:39:13.563Z,2.36
2023-01-21T15:44:17.948Z,2.37
2023-01-21T15:49:34.832Z,2.30
2023-01-21T15:55:01.443Z,2.25
2023-01-21T16:00:28.832Z,2.37
2023-01-21T16:05:54.309Z,2.37
2023-01-21T16:11:20.415Z,2.20
2023-01-21T16:16:36.023Z,2.20
2023-01-21T16:21:41.143Z,2.04
2023-01-21T16:26:43.331Z,2.25
2023-01-21T16:31:59.441Z,2.24
2023-01-21T16:37:05.252Z,2.33
2023-01-21T16:42:20.097Z,2.16
2023-01-21T16:47:33.201Z,2.16
2023-01-21T16:52:34.650Z,2.01
2023-01-21T16:57:37.429Z,2.03
2023-01-21T17:02:38.952Z,1.96
2023-01-21T17:07:47.050Z,2.03
2023-01-21T17:12:53.695Z,1.92
2023-01-21T17:17:58.883Z,1.92
2023-01-21T17:23:13.681Z,2.19
2023-01-21T17:28:30.293Z,2.15
2023-01-21T17:33:31.779Z,2.30
2023-01-21T17:38:38.769Z,2.33
2023-01-21T17:43:45.760Z,2.27
2023-01-21T17:48:47.258Z,2.20
2023-01-21T17:54:00.828Z,2.20
2023-01-21T17:59:02.680Z,2.20
2023-01-21T18:04:04.173Z,2.15
2023-01-21T18:09:05.821Z,2.10
2023-01-21T18:14:13.587Z,2.09
2023-01-21T18:19:32.948Z,2.09
2023-01-21T18:24:35.470Z,2.09
2023-01-21T18:29:36.888Z,2.09
2023-01-21T18:34:38.290Z,2.18
2023-01-21T18:39:40.440Z,2.20
2023-01-21T18:44:41.996Z,1.97
2023-01-21T18:49:44.319Z,2.06
2023-01-21T18:54:46.015Z,2.09
2023-01-21T18:59:47.462Z,1.94
2023-01-21T19:04:48.965Z,1.85
2023-01-21T19:09:51.071Z,1.87
2023-01-21T19:14:53.206Z,1.92
2023-01-21T19:19:55.387Z,1.93
2023-01-21T19:24:56.795Z,1.97
2023-01-21T19:29:58.235Z,1.90
2023-01-21T19:35:00.752Z,1.87
2023-01-21T19:40:02.427Z,1.78
2023-01-21T19:45:04.233Z,1.81
2023-01-21T19:50:06.559Z,1.81
2023-01-21T19:55:14.057Z,1.75
2023-01-21T20:00:25.213Z,-140.81
2023-01-21T20:05:28.986Z,1.75
2023-01-21T20:10:31.115Z,1.75
2023-01-21T20:15:34.209Z,1.74
2023-01-21T20:20:35.837Z,1.80
2023-01-21T20:25:38.718Z,1.60
2023-01-21T20:30:40.232Z,1.60
2023-01-21T20:35:42.238Z,1.60
2023-01-21T20:40:43.684Z,1.67
2023-01-21T20:45:47.433Z,1.73
2023-01-21T20:50:48.876Z,1.73
2023-01-21T20:55:51.725Z,1.73
2023-01-21T21:00:53.692Z,1.73
2023-01-21T21:05:55.215Z,1.75
2023-01-21T21:10:56.663Z,-140.81
2023-01-21T21:15:58.138Z,1.75
2023-01-21T21:20:59.566Z,1.75
2023-01-21T21:31:02.386Z,-140.81
2023-01-21T21:36:04.202Z,-140.81
2023-01-21T21:41:24.320Z,1.75
2023-01-21T21:51:46.154Z,-140.81
2023-01-21T22:01:49.372Z,-140.81
2023-01-21T22:06:50.809Z,-140.81
2023-01-21T22:16:53.867Z,-140.81
2023-01-21T22:26:56.677Z,-140.81
2023-01-21T22:31:58.236Z,-140.81
2023-01-21T22:36:59.665Z,-140.81
2023-01-21T22:47:04.660Z,-140.81
2023-01-21T22:52:06.088Z,-140.81
2023-01-21T23:02:08.892Z,-140.81
2023-01-21T23:07:10.323Z,-140.81
2023-01-21T23:32:24.350Z,-140.81
2023-01-21T23:37:25.809Z,-140.81
2023-01-21T23:42:27.392Z,-140.81
2023-01-21T23:47:28.917Z,-140.81
2023-01-21T23:52:30.340Z,-140.81
2023-01-21T23:57:31.989Z,-140.81
